createdAt,value
2019-05-09T00:02:08.209Z,1.00
2019-05-09T00:04:35.835Z,1.00
2019-05-09T00:07:03.697Z,1.00
2019-05-09T00:09:33.421Z,1.37
2019-05-09T00:12:00.450Z,0.98
2019-05-09T00:14:27.870Z,1.15
2019-05-09T00:16:55.243Z,1.25
2019-05-09T00:19:23.747Z,1.10
2019-05-09T00:21:53.534Z,1.25
2019-05-09T00:24:21.211Z,1.10
2019-05-09T00:26:48.576Z,1.15
2019-05-09T00:29:21.906Z,1.17
2019-05-09T00:32:05.014Z,1.20
2019-05-09T00:34:44.078Z,1.10
2019-05-09T00:37:13.417Z,1.47
2019-05-09T00:39:40.545Z,1.32
2019-05-09T00:42:07.955Z,1.05
2019-05-09T00:44:37.213Z,1.37
2019-05-09T00:47:29.996Z,1.32
2019-05-09T00:49:57.413Z,1.40
2019-05-09T00:52:24.740Z,1.52
2019-05-09T00:54:53.159Z,1.32
2019-05-09T00:57:35.743Z,1.20
2019-05-09T01:00:08.522Z,1.40
2019-05-09T01:02:35.891Z,1.30
2019-05-09T01:05:04.202Z,1.12
2019-05-09T01:07:33.677Z,1.20
2019-05-09T01:10:00.965Z,1.25
2019-05-09T01:12:28.321Z,1.25
2019-05-09T01:14:55.819Z,1.47
2019-05-09T01:17:24.083Z,1.42
2019-05-09T01:19:53.777Z,1.52
2019-05-09T01:22:23.620Z,1.50
2019-05-09T01:24:53.315Z,1.98
2019-05-09T01:27:20.563Z,1.85
2019-05-09T01:29:48.368Z,1.90
2019-05-09T01:32:27.258Z,2.00
2019-05-09T01:34:54.568Z,1.70
2019-05-09T01:37:23.729Z,2.00
2019-05-09T01:39:53.354Z,1.70
2019-05-09T01:42:20.520Z,1.80
2019-05-09T01:44:47.900Z,1.55
2019-05-09T01:47:15.234Z,1.32
2019-05-09T01:49:43.199Z,1.67
2019-05-09T01:52:10.609Z,1.27
2019-05-09T01:54:39.704Z,1.40
2019-05-09T01:57:07.224Z,1.20
2019-05-09T01:59:34.521Z,1.17
2019-05-09T02:02:08.372Z,1.00
2019-05-09T02:04:33.361Z,1.00
2019-05-09T02:07:00.617Z,1.32
2019-05-09T02:09:28.021Z,1.10
2019-05-09T02:11:55.325Z,1.00
2019-05-09T02:14:30.813Z,1.20
2019-05-09T02:17:16.077Z,1.05
2019-05-09T02:19:43.992Z,1.17
2019-05-09T02:22:29.426Z,1.10
2019-05-09T02:24:57.018Z,1.02
2019-05-09T02:27:24.318Z,0.90
2019-05-09T02:29:51.699Z,0.85
2019-05-09T02:32:18.946Z,0.78
2019-05-09T02:34:46.408Z,1.12
2019-05-09T02:37:13.732Z,1.00
2019-05-09T02:39:41.032Z,1.05
2019-05-09T02:42:13.447Z,1.00
2019-05-09T02:44:39.526Z,1.00
2019-05-09T02:47:12.429Z,1.10
2019-05-09T02:49:39.799Z,1.10
2019-05-09T02:52:08.843Z,1.40
2019-05-09T02:54:39.273Z,1.05
2019-05-09T02:57:08.426Z,0.93
2019-05-09T02:59:51.592Z,1.20
2019-05-09T03:02:29.072Z,1.60
2019-05-09T03:04:58.192Z,1.22
2019-05-09T03:07:43.723Z,0.95
2019-05-09T03:10:11.130Z,1.60
2019-05-09T03:12:39.886Z,1.47
2019-05-09T03:15:09.211Z,0.90
2019-05-09T03:17:38.640Z,0.82
2019-05-09T03:20:09.432Z,0.98
2019-05-09T03:22:39.526Z,1.00
2019-05-09T03:25:09.045Z,1.10
2019-05-09T03:27:39.109Z,1.50
2019-05-09T03:30:12.021Z,0.95
2019-05-09T03:32:38.772Z,0.70
2019-05-09T03:35:07.922Z,0.93
2019-05-09T03:37:37.757Z,0.90
2019-05-09T03:40:04.809Z,1.00
2019-05-09T03:42:41.085Z,1.45
2019-05-09T03:45:01.373Z,1.10
2019-05-09T03:47:34.021Z,1.10
2019-05-09T03:50:09.526Z,0.80
2019-05-09T03:52:37.302Z,0.80
2019-05-09T03:55:07.345Z,0.90
2019-05-09T03:57:37.378Z,0.90
2019-05-09T04:00:07.570Z,0.80
2019-05-09T04:02:34.806Z,1.12
2019-05-09T04:05:02.111Z,0.95
2019-05-09T04:07:29.858Z,0.93
2019-05-09T04:09:58.502Z,1.40
2019-05-09T04:12:28.232Z,1.10
2019-05-09T04:14:55.404Z,1.50
2019-05-09T04:17:28.193Z,1.45
2019-05-09T04:19:57.760Z,1.87
2019-05-09T04:22:27.075Z,2.40
2019-05-09T04:24:54.106Z,3.12
2019-05-09T04:27:29.692Z,2.30
2019-05-09T04:29:57.361Z,1.37
2019-05-09T04:32:24.567Z,1.92
2019-05-09T04:34:51.919Z,1.90
2019-05-09T04:37:19.259Z,2.00
2019-05-09T04:39:47.674Z,1.90
2019-05-09T04:42:15.213Z,1.45
2019-05-09T04:45:03.416Z,1.07
2019-05-09T04:47:33.844Z,0.98
2019-05-09T04:50:00.421Z,1.07
2019-05-09T04:52:27.976Z,1.05
2019-05-09T04:54:57.483Z,0.98
2019-05-09T04:57:24.777Z,1.10
2019-05-09T04:59:52.154Z,1.10
2019-05-09T05:02:38.128Z,1.10
2019-05-09T05:05:07.808Z,1.40
2019-05-09T05:07:37.542Z,1.70
2019-05-09T05:10:05.071Z,1.70
2019-05-09T05:12:32.493Z,2.05
2019-05-09T05:14:59.828Z,1.67
2019-05-09T05:17:30.355Z,1.50
2019-05-09T05:19:58.055Z,2.20
2019-05-09T05:22:31.070Z,1.95
2019-05-09T05:25:00.901Z,1.80
2019-05-09T05:27:28.817Z,1.80
2019-05-09T05:29:58.318Z,1.80
2019-05-09T05:32:38.613Z,2.00
2019-05-09T05:35:28.313Z,2.00
2019-05-09T05:37:55.101Z,3.00
2019-05-09T05:40:22.417Z,2.60
2019-05-09T05:42:49.791Z,2.30
2019-05-09T05:45:18.100Z,1.95
2019-05-09T05:47:57.469Z,1.80
2019-05-09T05:50:24.961Z,1.70
2019-05-09T05:52:52.373Z,2.22
2019-05-09T05:55:19.768Z,2.10
2019-05-09T05:57:47.850Z,1.57
2019-05-09T06:00:18.034Z,1.70
2019-05-09T06:02:47.689Z,2.02
2019-05-09T06:05:14.813Z,2.05
2019-05-09T06:07:42.193Z,1.95
2019-05-09T06:10:09.503Z,1.55
2019-05-09T06:12:38.089Z,1.82
2019-05-09T06:15:07.568Z,1.60
2019-05-09T06:17:37.775Z,1.42
2019-05-09T06:20:05.033Z,1.30
2019-05-09T06:22:32.369Z,1.57
2019-05-09T06:24:59.729Z,1.87
2019-05-09T06:27:27.610Z,2.30
2019-05-09T06:29:55.066Z,1.40
2019-05-09T06:32:22.410Z,1.77
2019-05-09T06:34:49.685Z,1.90
2019-05-09T06:37:18.343Z,2.22
2019-05-09T06:39:45.922Z,4.30
2019-05-09T06:42:13.348Z,2.10
2019-05-09T06:45:00.198Z,1.80
2019-05-09T06:47:37.973Z,3.90
2019-05-09T06:50:08.073Z,3.67
2019-05-09T06:52:37.508Z,1.55
2019-05-09T06:55:05.705Z,1.47
2019-05-09T06:57:32.997Z,1.70
2019-05-09T07:00:00.482Z,1.45
2019-05-09T07:02:42.002Z,1.42
2019-05-09T07:05:14.659Z,1.67
2019-05-09T07:07:49.270Z,1.42
2019-05-09T07:10:17.797Z,1.37
2019-05-09T07:12:45.377Z,1.30
2019-05-09T07:15:12.784Z,1.87
2019-05-09T07:17:40.123Z,2.17
2019-05-09T07:20:08.458Z,2.20
2019-05-09T07:22:39.600Z,2.33
2019-05-09T07:27:48.317Z,3.02
2019-05-09T07:30:29.732Z,2.50
2019-05-09T07:33:04.502Z,2.02
2019-05-09T07:35:31.856Z,2.47
2019-05-09T07:37:59.222Z,3.33
2019-05-09T07:40:30.246Z,2.98
2019-05-09T07:42:58.195Z,2.20
2019-05-09T07:45:25.360Z,1.77
2019-05-09T07:47:52.674Z,1.87
2019-05-09T07:50:19.975Z,1.30
2019-05-09T07:52:47.911Z,1.10
2019-05-09T07:55:17.815Z,0.90
2019-05-09T07:57:50.094Z,1.20
2019-05-09T08:00:18.421Z,0.98
2019-05-09T08:02:47.694Z,1.50
2019-05-09T08:05:24.509Z,0.93
2019-05-09T08:07:51.969Z,1.02
2019-05-09T08:10:19.427Z,1.12
2019-05-09T08:12:48.044Z,1.00
2019-05-09T08:15:17.485Z,1.60
2019-05-09T08:17:44.828Z,1.10
2019-05-09T08:20:13.912Z,1.17
2019-05-09T08:22:50.024Z,1.10
2019-05-09T08:25:10.838Z,1.00
2019-05-09T08:27:38.239Z,1.37
2019-05-09T08:30:07.967Z,1.25
2019-05-09T08:32:37.769Z,1.00
2019-05-09T08:35:04.754Z,1.20
2019-05-09T08:37:32.191Z,1.17
2019-05-09T08:39:59.527Z,1.20
2019-05-09T08:42:29.222Z,0.80
2019-05-09T08:44:57.758Z,0.90
2019-05-09T08:47:27.749Z,1.98
2019-05-09T08:50:07.733Z,0.98
2019-05-09T08:52:34.370Z,1.10
2019-05-09T08:55:01.810Z,0.80
2019-05-09T08:57:29.228Z,0.80
2019-05-09T08:59:58.828Z,1.00
2019-05-09T09:02:28.145Z,1.00
2019-05-09T09:04:57.976Z,0.80
2019-05-09T09:07:24.323Z,0.72
2019-05-09T09:09:51.633Z,1.00
2019-05-09T09:12:27.096Z,0.70
2019-05-09T09:14:48.236Z,0.85
2019-05-09T09:17:15.701Z,0.90
2019-05-09T09:19:43.071Z,1.40
2019-05-09T09:22:10.425Z,1.20
2019-05-09T09:24:38.203Z,0.68
2019-05-09T09:27:07.684Z,0.72
2019-05-09T09:29:37.748Z,0.90
2019-05-09T09:32:04.212Z,0.88
2019-05-09T09:34:31.582Z,0.65
2019-05-09T09:37:04.013Z,0.85
2019-05-09T09:39:31.183Z,0.70
2019-05-09T09:41:58.675Z,0.78
2019-05-09T09:44:28.758Z,0.75
2019-05-09T09:46:57.954Z,1.00
2019-05-09T09:49:24.908Z,0.82
2019-05-09T09:51:52.270Z,0.75
2019-05-09T09:54:19.650Z,0.80
2019-05-09T09:56:48.527Z,0.70
2019-05-09T09:59:28.325Z,1.05
2019-05-09T10:01:58.220Z,0.70
2019-05-09T10:04:25.499Z,0.90
2019-05-09T10:06:53.248Z,0.50
2019-05-09T10:09:20.742Z,0.78
2019-05-09T10:11:48.455Z,0.90
2019-05-09T10:14:21.243Z,0.50
2019-05-09T10:17:17.938Z,0.80
2019-05-09T10:20:11.302Z,0.68
2019-05-09T10:22:46.048Z,1.10
2019-05-09T10:25:08.076Z,0.88
2019-05-09T10:27:35.443Z,0.80
2019-05-09T10:30:03.273Z,0.65
2019-05-09T10:32:30.583Z,1.05
2019-05-09T10:34:58.236Z,1.10
2019-05-09T10:37:25.629Z,0.80
2019-05-09T10:39:53.336Z,1.10
2019-05-09T10:42:43.192Z,0.82
2019-05-09T10:45:48.447Z,1.17
2019-05-09T10:48:15.925Z,1.05
2019-05-09T10:50:45.629Z,0.82
2019-05-09T10:53:12.609Z,0.93
2019-05-09T10:55:40.179Z,1.15
2019-05-09T10:58:08.190Z,1.00
2019-05-09T11:00:39.081Z,1.15
2019-05-09T11:03:04.936Z,1.05
2019-05-09T11:05:32.263Z,1.25
2019-05-09T11:07:59.560Z,1.10
2019-05-09T11:10:31.803Z,1.20
2019-05-09T11:12:58.388Z,1.30
2019-05-09T11:15:25.538Z,1.50
2019-05-09T11:17:53.316Z,1.22
2019-05-09T11:20:20.769Z,0.98
2019-05-09T11:22:48.098Z,1.37
2019-05-09T11:25:15.417Z,1.52
2019-05-09T11:27:43.028Z,1.60
2019-05-09T11:30:10.538Z,1.27
2019-05-09T11:32:38.585Z,1.15
2019-05-09T11:35:08.799Z,1.12
2019-05-09T11:37:38.333Z,1.40
2019-05-09T11:40:08.051Z,1.20
2019-05-09T11:42:37.889Z,1.30
2019-05-09T11:45:07.426Z,0.95
2019-05-09T11:47:42.904Z,1.40
2019-05-09T11:50:04.148Z,1.00
2019-05-09T11:52:31.780Z,1.20
2019-05-09T11:54:59.175Z,1.30
2019-05-09T11:57:28.646Z,1.60
2019-05-09T11:59:57.910Z,1.25
2019-05-09T12:02:29.517Z,1.27
2019-05-09T12:04:58.336Z,1.27
2019-05-09T12:07:25.733Z,1.25
2019-05-09T12:09:53.204Z,1.35
2019-05-09T12:12:20.554Z,1.30
2019-05-09T12:14:48.489Z,1.27
2019-05-09T12:17:19.279Z,1.10
2019-05-09T12:19:45.767Z,1.30
2019-05-09T12:22:13.485Z,1.10
2019-05-09T12:24:40.961Z,0.80
2019-05-09T12:27:08.912Z,0.95
2019-05-09T12:29:38.625Z,1.20
2019-05-09T12:32:05.689Z,0.90
2019-05-09T12:34:32.989Z,0.90
2019-05-09T12:37:00.314Z,1.25
2019-05-09T12:39:27.706Z,1.47
2019-05-09T12:41:57.707Z,1.10
2019-05-09T12:44:25.296Z,1.10
2019-05-09T12:46:52.762Z,1.15
2019-05-09T12:49:20.142Z,1.10
2019-05-09T12:51:47.637Z,1.10
2019-05-09T12:54:15.005Z,0.85
2019-05-09T12:56:42.341Z,1.10
2019-05-09T12:59:09.649Z,0.80
2019-05-09T13:01:40.848Z,0.70
2019-05-09T13:04:09.510Z,0.80
2019-05-09T13:06:38.015Z,1.00
2019-05-09T13:09:08.136Z,1.35
2019-05-09T13:11:35.309Z,1.30
2019-05-09T13:14:02.624Z,0.88
2019-05-09T13:16:53.560Z,0.85
2019-05-09T13:19:19.716Z,1.05
2019-05-09T13:21:47.129Z,1.00
2019-05-09T13:24:14.485Z,1.00
2019-05-09T13:26:43.609Z,0.90
2019-05-09T13:29:10.996Z,1.10
2019-05-09T13:31:39.662Z,1.00
2019-05-09T13:34:08.013Z,1.35
2019-05-09T13:36:35.607Z,1.07
2019-05-09T13:39:05.481Z,0.90
2019-05-09T13:41:34.425Z,0.78
2019-05-09T13:44:05.414Z,0.90
2019-05-09T13:46:31.030Z,0.82
2019-05-09T13:49:10.874Z,1.00
2019-05-09T13:51:28.174Z,0.88
2019-05-09T13:53:59.018Z,0.82
2019-05-09T13:56:25.011Z,0.93
2019-05-09T13:58:52.401Z,1.00
2019-05-09T14:01:19.761Z,1.00
2019-05-09T14:03:49.124Z,0.98
2019-05-09T14:06:16.424Z,1.00
2019-05-09T14:08:43.757Z,1.00
2019-05-09T14:11:11.164Z,1.02
2019-05-09T14:13:38.635Z,1.30
2019-05-09T14:16:18.994Z,1.20
2019-05-09T14:18:35.419Z,1.35
2019-05-09T14:21:02.744Z,1.52
2019-05-09T14:23:35.470Z,1.30
2019-05-09T14:26:00.043Z,1.60
2019-05-09T14:28:28.580Z,1.50
2019-05-09T14:30:56.103Z,1.35
2019-05-09T14:33:23.510Z,1.10
2019-05-09T14:35:50.868Z,1.20
2019-05-09T14:38:18.586Z,1.60
2019-05-09T14:40:47.433Z,1.42
2019-05-09T14:43:14.857Z,2.20
2019-05-09T14:45:42.217Z,2.05
2019-05-09T14:48:09.612Z,1.67
2019-05-09T14:50:38.160Z,1.60
2019-05-09T14:53:08.320Z,1.60
2019-05-09T14:55:35.084Z,2.35
2019-05-09T14:58:02.465Z,1.92
2019-05-09T15:00:29.839Z,2.10
2019-05-09T15:02:58.073Z,2.35
2019-05-09T15:05:27.746Z,1.90
2019-05-09T15:07:54.886Z,2.10
2019-05-09T15:10:22.243Z,1.80
2019-05-09T15:12:49.833Z,2.30
2019-05-09T15:15:18.462Z,1.80
2019-05-09T15:17:48.908Z,1.72
2019-05-09T15:20:17.855Z,1.75
2019-05-09T15:22:44.805Z,1.98
2019-05-09T15:25:12.248Z,1.62
2019-05-09T15:27:39.649Z,1.70
2019-05-09T15:30:07.119Z,1.80
2019-05-09T15:32:34.460Z,1.60
2019-05-09T15:35:02.046Z,1.80
2019-05-09T15:37:29.396Z,1.87
2019-05-09T15:39:56.846Z,1.60
2019-05-09T15:42:24.189Z,1.50
2019-05-09T15:44:51.566Z,1.30
2019-05-09T15:47:27.717Z,1.32
2019-05-09T15:49:57.821Z,1.35
2019-05-09T15:52:24.402Z,1.67
2019-05-09T15:54:51.882Z,1.60
2019-05-09T15:57:19.337Z,1.87
2019-05-09T15:59:47.962Z,1.60
2019-05-09T16:02:15.507Z,1.50
2019-05-09T16:04:42.838Z,1.35
2019-05-09T16:07:10.274Z,1.62
2019-05-09T16:09:37.929Z,1.50
2019-05-09T16:12:07.796Z,1.30
2019-05-09T16:14:34.960Z,1.60
2019-05-09T16:17:02.302Z,1.20
2019-05-09T16:19:29.910Z,1.27
2019-05-09T16:21:57.241Z,1.10
2019-05-09T16:24:24.573Z,1.50
2019-05-09T16:26:52.629Z,1.20
2019-05-09T16:29:19.995Z,1.70
2019-05-09T16:31:48.116Z,1.55
2019-05-09T16:34:17.780Z,1.15
2019-05-09T16:36:47.779Z,1.85
2019-05-09T16:39:14.907Z,1.60
2019-05-09T16:41:42.386Z,1.50
2019-05-09T16:44:09.726Z,1.60
2019-05-09T16:46:37.763Z,1.90
2019-05-09T16:49:05.307Z,1.57
2019-05-09T16:51:32.776Z,1.80
2019-05-09T16:54:00.091Z,1.72
2019-05-09T16:56:28.757Z,1.60
2019-05-09T16:58:57.869Z,1.60
2019-05-09T17:01:28.103Z,1.77
2019-05-09T17:03:57.355Z,2.20
2019-05-09T17:06:24.285Z,2.20
2019-05-09T17:08:51.895Z,1.77
2019-05-09T17:11:19.431Z,1.80
2019-05-09T17:13:47.118Z,1.77
2019-05-09T17:16:14.696Z,2.00
2019-05-09T17:18:42.074Z,2.30
2019-05-09T17:21:28.116Z,2.15
2019-05-09T17:23:58.202Z,2.02
2019-05-09T17:26:28.391Z,2.55
2019-05-09T17:28:55.948Z,2.40
2019-05-09T17:31:23.644Z,2.60
2019-05-09T17:33:50.993Z,2.80
2019-05-09T17:36:18.391Z,2.60
2019-05-09T17:38:47.821Z,2.60
2019-05-09T17:41:17.505Z,2.40
2019-05-09T17:43:44.544Z,2.30
2019-05-09T17:46:11.965Z,2.27
2019-05-09T17:48:39.334Z,2.52
2019-05-09T17:51:08.426Z,2.47
2019-05-09T17:53:35.993Z,2.30
2019-05-09T17:56:03.485Z,2.52
2019-05-09T17:58:33.417Z,2.52
2019-05-09T18:01:00.253Z,2.85
2019-05-09T18:03:29.148Z,3.00
2019-05-09T18:05:57.761Z,3.65
2019-05-09T18:08:25.325Z,3.90
2019-05-09T18:10:52.733Z,3.20
2019-05-09T18:13:23.814Z,2.40
2019-05-09T18:15:49.548Z,2.52
2019-05-09T18:18:18.452Z,2.85
2019-05-09T18:20:46.200Z,2.47
2019-05-09T18:23:13.545Z,4.22
2019-05-09T18:25:40.944Z,4.70
2019-05-09T18:28:08.271Z,3.77
2019-05-09T18:30:35.645Z,4.50
2019-05-09T18:33:13.997Z,3.52
2019-05-09T18:35:41.317Z,3.52
2019-05-09T18:38:12.370Z,3.72
2019-05-09T18:43:07.707Z,4.10
2019-05-09T18:45:37.605Z,3.60
2019-05-09T18:48:05.025Z,2.60
2019-05-09T18:50:32.413Z,1.72
2019-05-09T18:52:59.793Z,2.05
2019-05-09T18:55:27.245Z,2.60
2019-05-09T18:57:54.675Z,1.92
2019-05-09T19:00:23.794Z,1.92
2019-05-09T19:02:51.292Z,2.60
2019-05-09T19:05:19.208Z,2.83
2019-05-09T19:07:46.800Z,4.50
2019-05-09T19:10:14.673Z,3.85
2019-05-09T19:12:42.133Z,3.50
2019-05-09T19:15:14.804Z,2.95
2019-05-09T19:17:52.239Z,2.95
2019-05-09T19:20:42.166Z,3.33
2019-05-09T19:23:09.548Z,3.47
2019-05-09T19:25:37.001Z,3.10
2019-05-09T19:28:04.404Z,3.45
2019-05-09T19:30:32.015Z,2.95
2019-05-09T19:32:59.459Z,2.60
2019-05-09T19:35:26.854Z,3.20
2019-05-09T19:37:54.454Z,3.40
2019-05-09T19:40:21.817Z,3.42
2019-05-09T19:42:49.185Z,2.92
2019-05-09T19:45:16.726Z,2.70
2019-05-09T19:47:44.077Z,2.22
2019-05-09T19:50:12.045Z,2.15
2019-05-09T19:52:39.697Z,1.70
2019-05-09T19:55:07.260Z,1.80
2019-05-09T19:57:34.748Z,1.70
2019-05-09T20:00:02.163Z,1.82
2019-05-09T20:02:29.975Z,1.80
2019-05-09T20:04:57.482Z,1.92
2019-05-09T20:07:25.508Z,1.90
2019-05-09T20:09:59.274Z,1.70
2019-05-09T20:12:44.156Z,1.92
2019-05-09T20:15:12.934Z,1.57
2019-05-09T20:17:40.380Z,1.82
2019-05-09T20:20:07.756Z,1.82
2019-05-09T20:22:35.093Z,2.08
2019-05-09T20:25:02.670Z,2.47
2019-05-09T20:27:30.090Z,2.02
2019-05-09T20:29:57.469Z,2.00
2019-05-09T20:32:24.831Z,2.12
2019-05-09T20:34:52.221Z,2.12
2019-05-09T20:37:19.588Z,2.17
2019-05-09T20:39:47.990Z,2.30
2019-05-09T20:42:15.517Z,2.00
2019-05-09T20:44:42.834Z,2.20
2019-05-09T20:47:10.266Z,2.50
2019-05-09T20:49:37.831Z,2.17
2019-05-09T20:52:05.169Z,1.98
2019-05-09T20:54:32.544Z,2.20
2019-05-09T20:56:59.923Z,2.22
2019-05-09T20:59:27.297Z,2.42
2019-05-09T21:01:54.689Z,2.20
2019-05-09T21:04:22.053Z,1.80
2019-05-09T21:06:49.399Z,1.72
2019-05-09T21:09:16.901Z,1.82
2019-05-09T21:11:44.253Z,1.57
2019-05-09T21:14:11.869Z,1.52
2019-05-09T21:16:39.233Z,1.60
2019-05-09T21:19:06.558Z,1.50
2019-05-09T21:21:33.909Z,2.12
2019-05-09T21:24:01.248Z,1.67
2019-05-09T21:26:28.633Z,1.60
2019-05-09T21:28:55.917Z,1.90
2019-05-09T21:31:23.794Z,1.82
2019-05-09T21:33:51.108Z,1.90
2019-05-09T21:36:18.500Z,1.82
2019-05-09T21:38:45.841Z,1.95
2019-05-09T21:41:13.173Z,2.05
2019-05-09T21:43:40.617Z,2.00
2019-05-09T21:46:07.936Z,2.10
2019-05-09T21:48:38.298Z,2.37
2019-05-09T21:51:04.685Z,2.30
2019-05-09T21:53:40.357Z,2.27
2019-05-09T21:56:01.585Z,1.90
2019-05-09T21:58:28.915Z,2.42
2019-05-09T22:00:59.037Z,2.05
2019-05-09T22:03:26.608Z,2.08
2019-05-09T22:05:54.144Z,2.37
2019-05-09T22:08:21.689Z,2.10
2019-05-09T22:10:49.090Z,2.47
2019-05-09T22:13:16.472Z,1.98
2019-05-09T22:15:43.953Z,2.12
2019-05-09T22:18:11.313Z,1.87
2019-05-09T22:20:38.600Z,2.02
2019-05-09T22:23:06.543Z,2.47
2019-05-09T22:25:34.226Z,2.17
2019-05-09T22:28:01.622Z,2.00
2019-05-09T22:30:28.982Z,2.12
2019-05-09T22:32:56.363Z,1.70
2019-05-09T22:35:23.699Z,2.10
2019-05-09T22:37:51.037Z,2.40
2019-05-09T22:40:18.399Z,1.95
2019-05-09T22:42:45.887Z,2.10
2019-05-09T22:45:13.925Z,2.52
2019-05-09T22:47:41.490Z,1.95
2019-05-09T22:50:09.347Z,1.90
2019-05-09T22:52:36.816Z,2.40
2019-05-09T22:55:05.018Z,2.37
2019-05-09T22:57:32.392Z,2.92
2019-05-09T22:59:59.739Z,2.52
2019-05-09T23:02:27.093Z,1.92
2019-05-09T23:04:54.409Z,1.98
2019-05-09T23:07:21.890Z,2.08
2019-05-09T23:09:49.246Z,2.10
2019-05-09T23:12:16.593Z,2.27
2019-05-09T23:14:43.981Z,2.30
2019-05-09T23:17:11.278Z,2.98
2019-05-09T23:19:38.645Z,2.37
2019-05-09T23:22:06.361Z,2.62
2019-05-09T23:24:34.696Z,2.65
2019-05-09T23:27:02.060Z,2.70
2019-05-09T23:29:29.413Z,2.55
2019-05-09T23:32:16.279Z,2.72
2019-05-09T23:34:43.937Z,2.67
2019-05-09T23:37:11.276Z,2.83
2019-05-09T23:39:43.278Z,2.52
2019-05-09T23:42:10.629Z,2.40
2019-05-09T23:44:37.981Z,2.92
2019-05-09T23:47:05.572Z,3.08
2019-05-09T23:49:33.091Z,2.50
2019-05-09T23:52:00.517Z,3.00
2019-05-09T23:54:47.390Z,2.98
2019-05-09T23:57:33.342Z,2.50
